Time;durP1;ratioP1;P1;durP2;ratioP2;P2;SDS_P1;SDS_P2;PMS_P1;PMS_P2;Temp;Humidity;BMP_temperature;BMP_pressure;BME280_temperature;BME280_humidity;BME280_pressure;Samples;Min_cycle;Max_cycle;Signal;HPM_P1;HPM_P2
2023/05/15 00:00:43;;;;;;;4.78;3.75;;;;;;;18.28;44.39;99614.47;5053304;28;20060;-78
2023/05/15 00:03:11;;;;;;;6.10;3.75;;;;;;;18.25;44.42;99611.25;5053565;28;20060;-79
2023/05/15 00:05:38;;;;;;;3.45;3.13;;;;;;;18.22;44.59;99617.72;5051835;28;20477;-79
2023/05/15 00:08:05;;;;;;;4.55;4.10;;;;;;;18.19;44.94;99607.34;5052939;28;20087;-79
2023/05/15 00:10:31;;;;;;;4.85;4.35;;;;;;;18.16;45.08;99607.63;5053079;28;20057;-78
2023/05/15 00:12:57;;;;;;;4.43;3.83;;;;;;;18.13;45.36;99608.72;5053049;28;20057;-79
2023/05/15 00:15:24;;;;;;;4.63;4.13;;;;;;;18.12;45.08;99612.38;5051302;28;20049;-78
2023/05/15 00:17:51;;;;;;;5.57;4.05;;;;;;;18.07;45.03;99610.13;5051657;28;20107;-79
2023/05/15 00:20:17;;;;;;;5.05;3.95;;;;;;;18.06;45.45;99611.09;5053064;28;20103;-79
2023/05/15 00:22:44;;;;;;;6.13;4.47;;;;;;;18.04;45.55;99607.75;5052997;28;20048;-79
2023/05/15 00:25:11;;;;;;;4.85;4.05;;;;;;;18.02;45.54;99609.69;5052476;28;20064;-78
2023/05/15 00:27:37;;;;;;;4.30;3.90;;;;;;;18.00;45.17;99598.34;5052726;28;20049;-79
2023/05/15 00:30:04;;;;;;;6.22;4.00;;;;;;;17.99;45.57;99604.66;5052741;28;20103;-79
2023/05/15 00:32:31;;;;;;;6.05;4.18;;;;;;;17.98;45.63;99594.97;5051558;28;20057;-79
2023/05/15 00:38:08;;;;;;;6.55;4.40;;;;;;;17.96;45.55;99596.94;4986738;23;20053;-79
2023/05/15 00:40:37;;;;;;;4.55;4.15;;;;;;;17.93;45.73;99597.22;5032672;28;20144;-77
2023/05/15 00:43:05;;;;;;;5.43;4.28;;;;;;;17.92;46.24;99600.84;5032676;28;20053;-78
2023/05/15 00:45:31;;;;;;;4.72;4.32;;;;;;;17.91;46.23;99599.19;5032402;28;20060;-77
2023/05/15 00:48:00;;;;;;;6.35;4.55;;;;;;;17.88;46.67;99594.97;5032305;28;20152;-77
2023/05/15 00:50:27;;;;;;;5.03;4.40;;;;;;;17.86;46.57;99586.28;5032793;28;20061;-77
2023/05/15 00:52:54;;;;;;;5.00;4.50;;;;;;;17.85;46.87;99589.94;5032814;28;20057;-77
2023/05/15 00:55:20;;;;;;;5.07;4.38;;;;;;;17.83;46.40;99586.56;5032020;28;20494;-77
2023/05/15 00:57:47;;;;;;;4.78;4.20;;;;;;;17.81;46.03;99588.53;5031997;28;20054;-78
2023/05/15 01:00:17;;;;;;;5.40;4.57;;;;;;;17.79;46.20;99585.16;5032535;28;20433;-78
2023/05/15 01:02:44;;;;;;;5.80;5.10;;;;;;;17.76;46.20;99586.25;5032437;28;20068;-77
2023/05/15 01:05:12;;;;;;;5.82;5.22;;;;;;;17.73;46.80;99583.91;5031905;28;20057;-78
2023/05/15 01:07:56;;;;;;;9.23;6.45;;;;;;;17.65;47.25;99573.91;5014771;28;20077;-77
2023/05/15 01:10:23;;;;;;;5.93;5.38;;;;;;;17.63;46.50;99569.72;5032526;28;20057;-76
2023/05/15 01:12:53;;;;;;;8.70;6.20;;;;;;;17.58;46.66;99576.28;5032446;28;20053;-77
2023/05/15 01:15:19;;;;;;;6.80;6.03;;;;;;;17.55;47.17;99565.94;5014084;28;20049;-77
2023/05/15 01:17:46;;;;;;;6.00;5.40;;;;;;;17.53;46.88;99572.38;5031862;28;20096;-77
2023/05/15 01:20:17;;;;;;;8.32;6.65;;;;;;;17.50;47.37;99575.31;5031954;28;20104;-77
2023/05/15 01:23:01;;;;;;;8.32;6.05;;;;;;;17.47;48.01;99572.91;5014553;28;20053;-77
2023/05/15 01:25:53;;;;;;;7.32;5.97;;;;;;;17.40;48.23;99568.16;5031993;28;20107;-77
2023/05/15 01:28:29;;;;;;;8.27;6.53;;;;;;;17.41;48.24;99563.66;5031760;28;20084;-78
2023/05/15 01:31:01;;;;;;;7.55;6.68;;;;;;;17.39;48.08;99565.63;5031788;28;20053;-77
2023/05/15 01:33:36;;;;;;;9.05;6.72;;;;;;;17.34;48.45;99558.03;5032028;28;20107;-78
2023/05/15 01:36:08;;;;;;;8.00;6.68;;;;;;;17.34;48.47;99559.88;5031306;28;20140;-77
2023/05/15 01:38:45;;;;;;;8.20;6.45;;;;;;;17.32;48.40;99562.66;5031307;28;20049;-77
2023/05/15 01:41:21;;;;;;;7.57;6.80;;;;;;;17.29;48.61;99558.47;5031594;28;20152;-78
2023/05/15 01:43:54;;;;;;;8.07;6.75;;;;;;;17.30;48.47;99553.97;5031913;28;20108;-79
2023/05/15 01:46:22;;;;;;;7.85;6.72;;;;;;;17.29;48.07;99561.13;5031229;28;20057;-77
2023/05/15 01:48:51;;;;;;;6.63;5.82;;;;;;;17.26;48.18;99548.09;5030371;28;20054;-77
2023/05/15 01:51:19;;;;;;;10.77;7.18;;;;;;;17.26;48.63;99553.41;5031568;28;20056;-79
2023/05/15 01:53:48;;;;;;;10.32;8.07;;;;;;;17.25;48.79;99548.22;5031304;28;20073;-79
2023/05/15 01:56:16;;;;;;;10.07;8.02;;;;;;;17.24;48.70;99550.06;5030930;28;20490;-77
2023/05/15 01:58:43;;;;;;;9.60;8.48;;;;;;;17.23;48.94;99544.88;5031081;28;20057;-78
2023/05/15 02:01:11;;;;;;;10.10;7.75;;;;;;;17.21;48.98;99547.66;5031235;28;20063;-77
2023/05/15 02:03:40;;;;;;;12.57;8.00;;;;;;;17.18;49.15;99543.47;5031374;28;20072;-77
2023/05/15 02:06:07;;;;;;;10.02;8.63;;;;;;;17.15;49.23;99542.88;5030744;28;20595;-79
2023/05/15 02:08:35;;;;;;;11.27;8.68;;;;;;;17.14;49.42;99543.84;5030668;28;20072;-78
2023/05/15 02:11:02;;;;;;;12.70;9.88;;;;;;;17.11;49.64;99544.13;5031218;28;20148;-77
2023/05/15 02:13:30;;;;;;;10.60;9.38;;;;;;;17.09;49.82;99540.75;5030971;28;20060;-79
2023/05/15 02:15:57;;;;;;;10.70;9.57;;;;;;;17.06;49.93;99534.75;5030363;28;20061;-79
2023/05/15 02:18:24;;;;;;;12.95;9.82;;;;;;;17.03;50.01;99534.97;5031032;28;20515;-78
2023/05/15 02:20:51;;;;;;;12.07;10.25;;;;;;;17.02;50.09;99532.47;5030800;28;20057;-77
2023/05/15 02:23:19;;;;;;;10.25;8.93;;;;;;;16.99;50.23;99525.59;5030991;28;20149;-78
2023/05/15 02:26:12;;;;;;;12.30;11.00;;;;;;;16.94;51.42;99528.63;5030526;28;20057;-80
2023/05/15 02:28:47;;;;;;;;;;;;;;;16.94;49.27;99523.31;5030966;28;20056;-78
2023/05/15 02:31:27;;;;;;;12.65;9.10;;;;;;;16.94;50.56;99519.84;5030585;28;19921;-78
2023/05/15 02:34:14;;;;;;;10.73;9.63;;;;;;;16.88;50.83;99523.88;5030873;28;20140;-78
2023/05/15 02:36:45;;;;;;;13.27;10.75;;;;;;;16.86;51.06;99522.34;5029846;28;20092;-79
2023/05/15 02:39:15;;;;;;;13.43;11.18;;;;;;;16.84;50.92;99521.59;5030976;28;20049;-77
2023/05/15 02:41:44;;;;;;;13.98;11.45;;;;;;;16.80;50.83;99516.59;5030604;28;20045;-78
2023/05/15 02:44:12;;;;;;;15.13;12.27;;;;;;;16.79;51.08;99525.50;5030543;28;20788;-79
2023/05/15 02:46:40;;;;;;;14.55;12.30;;;;;;;16.77;51.17;99522.16;5029654;28;20054;-78
2023/05/15 02:49:07;;;;;;;15.40;13.57;;;;;;;16.74;51.15;99511.78;5030636;28;20053;-77
2023/05/15 02:51:34;;;;;;;15.10;13.43;;;;;;;16.73;51.41;99518.09;5030480;28;20061;-77
2023/05/15 02:54:01;;;;;;;17.45;13.38;;;;;;;16.72;51.40;99516.41;5030547;28;20045;-77
2023/05/15 02:56:27;;;;;;;16.17;14.48;;;;;;;16.72;51.43;99515.56;5029926;28;20513;-78
2023/05/15 02:58:54;;;;;;;18.77;15.38;;;;;;;16.70;51.92;99515.69;5030683;28;20080;-78
2023/05/15 03:01:21;;;;;;;16.40;14.70;;;;;;;16.69;51.80;99519.31;5034619;28;20494;-80
2023/05/15 03:03:47;;;;;;;18.15;15.13;;;;;;;16.68;51.75;99517.66;5034597;28;20053;-79
2023/05/15 03:06:15;;;;;;;17.88;14.73;;;;;;;16.66;51.88;99519.56;5034187;28;20049;-77
2023/05/15 03:08:41;;;;;;;17.20;14.15;;;;;;;16.64;51.92;99513.56;5033773;28;20060;-78
2023/05/15 03:11:08;;;;;;;20.13;14.32;;;;;;;16.62;51.86;99513.69;5034348;28;20080;-77
2023/05/15 03:13:34;;;;;;;19.23;15.27;;;;;;;16.60;52.05;99512.16;5034514;28;20418;-78
2023/05/15 03:16:01;;;;;;;16.80;14.88;;;;;;;16.58;52.14;99517.59;5034021;28;20512;-77
2023/05/15 03:18:27;;;;;;;16.00;13.40;;;;;;;16.57;51.86;99523.03;5034204;28;20107;-78
2023/05/15 03:20:54;;;;;;;16.35;14.52;;;;;;;16.53;52.15;99520.63;5016872;28;20124;-77
2023/05/15 03:23:21;;;;;;;17.42;14.32;;;;;;;16.50;51.92;99523.56;5034092;28;20417;-77
2023/05/15 03:25:47;;;;;;;19.42;14.20;;;;;;;16.44;51.85;99524.09;5034031;28;20053;-77
2023/05/15 03:28:14;;;;;;;17.20;15.15;;;;;;;16.37;51.91;99522.94;5034005;28;20045;-77
2023/05/15 03:30:43;;;;;;;17.50;15.57;;;;;;;16.28;52.74;99520.09;5016631;28;20160;-78
2023/05/15 03:33:09;;;;;;;19.52;17.20;;;;;;;16.25;52.59;99530.97;5034019;28;20493;-78
2023/05/15 03:35:36;;;;;;;17.92;15.95;;;;;;;16.18;52.56;99527.16;5033804;28;20148;-77
2023/05/15 03:38:02;;;;;;;19.30;16.90;;;;;;;16.16;52.71;99523.78;5033981;28;20056;-78
2023/05/15 03:40:29;;;;;;;19.83;17.15;;;;;;;16.13;53.18;99524.03;5016507;28;20057;-78
2023/05/15 03:42:57;;;;;;;23.67;20.20;;;;;;;16.12;53.49;99531.16;5033889;28;20096;-77
2023/05/15 03:45:23;;;;;;;23.48;19.73;;;;;;;16.11;53.61;99526.81;5033412;28;20059;-78
2023/05/15 03:47:50;;;;;;;23.77;19.10;;;;;;;16.11;53.84;99523.34;5033311;28;20057;-79
2023/05/15 03:50:17;;;;;;;26.85;22.10;;;;;;;16.12;54.00;99522.38;5033745;28;20483;-77
2023/05/15 03:52:43;;;;;;;30.23;23.30;;;;;;;16.13;54.21;99518.72;5016427;28;20064;-78
2023/05/15 03:55:10;;;;;;;27.88;22.55;;;;;;;16.13;54.43;99519.59;5033389;28;20061;-78
2023/05/15 03:57:36;;;;;;;29.25;23.88;;;;;;;16.15;54.42;99522.13;5033290;28;20061;-77
2023/05/15 04:00:08;;;;;;;31.80;25.75;;;;;;;16.17;54.66;99522.81;5033629;28;20095;-77
2023/05/15 04:02:36;;;;;;;33.17;24.95;;;;;;;16.19;54.54;99525.34;5033598;28;20100;-77
2023/05/15 04:05:04;;;;;;;28.73;23.20;;;;;;;16.19;54.72;99518.22;5015377;28;20045;-79
2023/05/15 04:07:32;;;;;;;31.63;25.00;;;;;;;16.21;54.81;99518.94;5033304;28;20064;-78
2023/05/15 04:10:02;;;;;;;32.30;26.27;;;;;;;16.23;55.08;99518.81;5033461;28;20061;-78
2023/05/15 04:12:31;;;;;;;32.35;25.23;;;;;;;16.23;54.91;99524.94;5032543;28;20053;-78
2023/05/15 04:15:12;;;;;;;34.95;27.05;;;;;;;16.24;54.96;99521.34;5033058;28;20057;-78
2023/05/15 04:17:38;;;;;;;31.55;26.17;;;;;;;16.25;54.82;99519.50;5032999;28;20413;-76
2023/05/15 04:20:06;;;;;;;33.60;26.67;;;;;;;16.24;54.81;99520.47;5033359;28;20080;-77
2023/05/15 04:22:32;;;;;;;34.20;26.25;;;;;;;16.25;54.84;99520.34;5033301;28;20045;-77
2023/05/15 04:24:59;;;;;;;33.60;27.05;;;;;;;16.24;54.88;99518.69;5032703;28;20057;-77
2023/05/15 04:27:25;;;;;;;33.08;27.00;;;;;;;16.23;55.04;99514.31;5032694;28;20057;-76
2023/05/15 04:29:52;;;;;;;35.25;27.13;;;;;;;16.23;55.06;99506.34;5032985;28;20068;-77
2023/05/15 04:32:18;;;;;;;31.98;26.90;;;;;;;16.21;54.97;99510.09;5032882;28;20103;-77
2023/05/15 04:34:45;;;;;;;34.42;27.60;;;;;;;16.20;54.92;99514.59;5032770;28;20053;-78
2023/05/15 04:37:11;;;;;;;31.05;25.90;;;;;;;16.18;54.98;99511.22;5032122;28;20498;-78
2023/05/15 04:39:38;;;;;;;30.13;24.77;;;;;;;16.17;54.86;99508.69;5015121;28;20490;-77
2023/05/15 04:42:04;;;;;;;34.10;26.77;;;;;;;16.14;55.05;99510.63;5032649;28;20054;-78
2023/05/15 04:44:32;;;;;;;34.08;25.85;;;;;;;16.12;55.05;99509.91;5032550;28;20534;-77
2023/05/15 04:46:58;;;;;;;31.45;25.95;;;;;;;16.11;55.25;99508.22;5032393;28;20060;-78
2023/05/15 04:49:25;;;;;;;34.47;27.05;;;;;;;16.11;55.27;99510.06;5032528;28;20506;-77
2023/05/15 04:51:51;;;;;;;31.20;25.90;;;;;;;16.09;55.20;99510.19;5032672;28;20104;-77
2023/05/15 04:54:18;;;;;;;34.72;28.20;;;;;;;16.10;55.33;99516.31;5032572;28;20075;-79
2023/05/15 04:56:45;;;;;;;33.90;27.80;;;;;;;16.10;55.46;99513.66;5031647;28;20053;-77
2023/05/15 04:59:12;;;;;;;37.88;29.63;;;;;;;16.09;55.48;99510.19;5032537;28;20064;-79
2023/05/15 05:01:38;;;;;;;34.58;28.15;;;;;;;16.11;55.60;99512.72;5032590;28;20144;-78
2023/05/15 05:04:05;;;;;;;39.33;28.75;;;;;;;16.11;55.63;99512.72;5014830;28;20117;-77
2023/05/15 05:06:31;;;;;;;37.28;28.45;;;;;;;16.11;55.94;99515.38;5032028;28;20087;-78
2023/05/15 05:08:58;;;;;;;33.97;28.35;;;;;;;16.13;55.87;99518.72;5032247;28;20823;-78
2023/05/15 05:11:24;;;;;;;36.00;28.42;;;;;;;16.14;55.98;99523.06;5014692;28;20057;-77
2023/05/15 05:13:51;;;;;;;39.25;30.17;;;;;;;16.17;55.95;99514.84;5032062;28;20136;-76
2023/05/15 05:16:17;;;;;;;39.42;29.90;;;;;;;16.20;56.10;99514.59;5031802;28;20057;-77
2023/05/15 05:18:44;;;;;;;37.08;29.40;;;;;;;16.23;55.94;99519.63;5031947;28;20394;-78
2023/05/15 05:21:11;;;;;;;37.88;29.95;;;;;;;16.24;56.20;99516.03;5032153;28;20425;-77
2023/05/15 05:23:37;;;;;;;35.60;27.98;;;;;;;16.26;56.26;99518.56;5014285;28;20426;-76
2023/05/15 05:26:04;;;;;;;37.38;29.45;;;;;;;16.30;56.40;99517.31;5031596;28;20644;-76
2023/05/15 05:28:31;;;;;;;45.22;28.02;;;;;;;16.33;56.40;99513.56;5014006;28;20112;-77
2023/05/15 05:30:58;;;;;;;34.80;27.45;;;;;;;16.37;56.73;99523.78;5031899;28;20059;-77
2023/05/15 05:33:24;;;;;;;32.38;26.35;;;;;;;16.41;56.55;99517.22;5014484;28;20057;-78
2023/05/15 05:35:51;;;;;;;34.47;26.85;;;;;;;16.47;56.29;99518.53;5031217;28;20053;-79
2023/05/15 05:38:18;;;;;;;34.28;26.48;;;;;;;16.52;56.33;99520.78;5031489;28;20164;-78
2023/05/15 05:40:44;;;;;;;30.48;24.73;;;;;;;16.55;56.18;99525.81;5031611;28;20141;-78
2023/05/15 05:43:11;;;;;;;42.83;25.27;;;;;;;16.57;56.08;99525.69;5031579;28;20060;-79
2023/05/15 05:45:37;;;;;;;49.45;28.65;;;;;;;16.59;56.01;99523.75;5031481;28;20057;-78
2023/05/15 05:48:04;;;;;;;40.80;28.02;;;;;;;16.58;55.73;99527.38;5013671;28;20061;-79
2023/05/15 05:50:31;;;;;;;35.75;28.67;;;;;;;16.54;55.75;99526.81;5014012;28;20053;-79
2023/05/15 05:52:57;;;;;;;36.05;26.98;;;;;;;16.50;55.86;99528.88;5031418;28;20139;-77
2023/05/15 05:55:24;;;;;;;35.67;26.80;;;;;;;16.49;56.02;99529.84;5013392;28;20061;-79
2023/05/15 05:57:51;;;;;;;44.20;28.55;;;;;;;16.46;56.25;99532.78;5031535;28;20112;-78
2023/05/15 06:00:18;;;;;;;35.13;26.02;;;;;;;16.45;56.34;99531.06;5031525;28;20412;-78
2023/05/15 06:02:45;;;;;;;38.92;27.83;;;;;;;16.44;56.56;99526.75;5031417;28;20140;-78
2023/05/15 06:05:11;;;;;;;47.67;27.17;;;;;;;16.46;56.77;99523.97;5030762;28;20049;-78
2023/05/15 06:07:39;;;;;;;34.00;27.55;;;;;;;16.46;56.72;99523.97;5013304;28;20064;-78
2023/05/15 06:10:08;;;;;;;47.80;27.55;;;;;;;16.47;56.66;99526.50;5031256;28;20063;-78
2023/05/15 06:12:34;;;;;;;49.20;27.10;;;;;;;16.48;56.70;99514.06;5013567;28;20814;-78
2023/05/15 06:15:01;;;;;;;40.75;27.80;;;;;;;16.49;56.89;99519.22;5030842;28;20050;-79
2023/05/15 06:17:28;;;;;;;44.53;27.95;;;;;;;16.48;56.69;99517.53;5013227;28;20120;-79
2023/05/15 06:19:54;;;;;;;36.50;28.20;;;;;;;16.48;56.98;99522.84;5013425;28;20499;-78
2023/05/15 06:22:21;;;;;;;34.15;25.70;;;;;;;16.48;57.33;99533.47;5013326;28;20049;-77
2023/05/15 06:24:47;;;;;;;35.05;26.20;;;;;;;16.49;57.27;99540.47;5030634;28;20068;-80
2023/05/15 06:27:14;;;;;;;34.17;24.17;;;;;;;16.52;57.40;99539.38;5012956;28;20454;-78
2023/05/15 06:29:41;;;;;;;35.97;25.95;;;;;;;16.56;57.25;99539.97;5030951;28;20053;-78
2023/05/15 06:32:08;;;;;;;45.90;27.30;;;;;;;16.58;57.39;99536.19;5013410;28;20148;-77
2023/05/15 06:34:35;;;;;;;39.65;25.85;;;;;;;16.61;57.40;99535.09;5012793;28;20053;-78
2023/05/15 06:37:01;;;;;;;35.50;25.60;;;;;;;16.64;57.45;99529.50;5119527;22;20065;-78
2023/05/15 06:39:28;;;;;;;31.40;25.10;;;;;;;16.70;57.70;99533.47;5050538;28;20056;-78
2023/05/15 06:41:57;;;;;;;37.60;26.75;;;;;;;16.74;57.80;99541.03;5049132;28;20057;-78
2023/05/15 06:44:24;;;;;;;31.75;26.13;;;;;;;16.80;57.37;99543.16;5050804;28;20167;-78
2023/05/15 06:46:51;;;;;;;32.70;25.90;;;;;;;16.85;57.33;99529.44;5049995;28;20057;-78
2023/05/15 06:49:17;;;;;;;35.72;27.05;;;;;;;16.88;57.20;99533.66;5050501;28;20099;-79
2023/05/15 06:51:44;;;;;;;37.17;27.35;;;;;;;16.91;57.11;99541.38;5050440;28;20053;-78
2023/05/15 06:54:11;;;;;;;34.30;26.45;;;;;;;16.94;57.27;99538.44;5050433;28;20049;-78
2023/05/15 06:56:37;;;;;;;35.42;27.67;;;;;;;16.98;57.39;99537.22;5049344;28;20141;-78
2023/05/15 06:59:04;;;;;;;32.58;25.98;;;;;;;17.02;57.10;99545.75;5050524;28;20405;-78
2023/05/15 07:01:31;;;;;;;33.60;23.58;;;;;;;17.06;56.75;99550.72;5050459;28;20060;-77
2023/05/15 07:03:57;;;;;;;27.70;22.30;;;;;;;17.10;56.49;99553.06;5049140;28;20069;-79
2023/05/15 07:06:25;;;;;;;29.90;23.50;;;;;;;17.12;56.53;99553.81;5050180;28;20068;-79
2023/05/15 07:08:51;;;;;;;29.23;22.98;;;;;;;17.12;56.29;99554.63;5049811;28;20438;-79
2023/05/15 07:11:18;;;;;;;32.55;24.73;;;;;;;17.13;56.28;99559.00;5050175;28;20084;-78
2023/05/15 07:13:45;;;;;;;36.53;23.40;;;;;;;17.13;56.17;99560.78;5050210;28;20052;-78
2023/05/15 07:16:11;;;;;;;28.05;21.85;;;;;;;17.09;55.95;99562.91;5050186;28;20140;-78
2023/05/15 07:18:38;;;;;;;30.83;23.63;;;;;;;17.08;55.92;99563.03;5049978;28;20139;-78
2023/05/15 07:21:05;;;;;;;30.83;24.13;;;;;;;17.04;56.10;99562.41;5050497;28;20136;-78
2023/05/15 07:23:31;;;;;;;40.50;25.88;;;;;;;17.00;55.91;99559.19;5050102;28;20064;-78
2023/05/15 07:25:58;;;;;;;35.05;25.65;;;;;;;16.97;56.01;99559.44;5049791;28;20071;-79
2023/05/15 07:28:24;;;;;;;36.83;26.08;;;;;;;16.93;55.98;99553.56;5049631;28;20425;-78
2023/05/15 07:30:51;;;;;;;36.22;24.77;;;;;;;16.92;56.78;99556.34;5050040;28;20084;-79
2023/05/15 07:33:18;;;;;;;32.20;24.58;;;;;;;16.93;56.89;99548.25;5050162;28;20082;-79
2023/05/15 07:35:44;;;;;;;32.85;24.40;;;;;;;16.95;57.37;99553.41;5049630;28;20509;-79
2023/05/15 07:38:11;;;;;;;36.38;25.85;;;;;;;16.99;56.93;99554.84;5048338;28;20096;-78
2023/05/15 07:40:38;;;;;;;33.72;25.02;;;;;;;17.04;56.98;99557.09;5049888;28;20053;-78
2023/05/15 07:43:04;;;;;;;43.10;25.23;;;;;;;17.08;56.84;99563.84;5049719;28;20051;-79
2023/05/15 07:45:31;;;;;;;37.05;25.70;;;;;;;17.09;56.42;99568.22;5048351;28;20144;-78
2023/05/15 07:47:57;;;;;;;35.78;25.50;;;;;;;17.10;56.14;99575.22;5052016;28;20611;-79
2023/05/15 07:50:24;;;;;;;33.30;24.23;;;;;;;17.08;56.12;99565.69;5053897;28;20500;-78
2023/05/15 07:52:51;;;;;;;34.17;26.08;;;;;;;17.03;56.38;99564.22;5052028;28;20493;-78
2023/05/15 07:55:17;;;;;;;32.75;23.80;;;;;;;17.01;56.37;99566.16;5053195;28;20498;-78
2023/05/15 07:57:44;;;;;;;31.15;24.00;;;;;;;16.99;56.33;99562.81;5052217;28;20147;-79
2023/05/15 08:00:11;;;;;;;31.58;23.50;;;;;;;16.96;56.69;99563.06;5052481;28;20049;-79
2023/05/15 08:02:39;;;;;;;30.52;23.60;;;;;;;16.97;56.77;99554.13;5053606;28;20498;-78
2023/05/15 08:05:06;;;;;;;35.15;24.88;;;;;;;16.98;56.83;99557.63;5053342;28;20067;-79
2023/05/15 08:07:34;;;;;;;35.22;24.98;;;;;;;16.99;57.08;99552.19;5052791;28;20068;-78
2023/05/15 08:10:00;;;;;;;33.80;23.83;;;;;;;17.00;57.17;99553.00;5053584;28;20118;-78
2023/05/15 08:12:27;;;;;;;34.97;25.98;;;;;;;17.02;57.21;99562.56;5052326;28;20083;-78
2023/05/15 08:14:54;;;;;;;36.00;25.50;;;;;;;17.03;57.08;99558.91;5052777;28;20055;-78
2023/05/15 08:17:22;;;;;;;32.67;24.50;;;;;;;17.04;56.92;99559.75;5052865;28;20144;-77
2023/05/15 08:19:49;;;;;;;33.90;26.00;;;;;;;17.05;57.12;99559.63;5052990;28;20718;-78
2023/05/15 08:22:16;;;;;;;33.97;25.30;;;;;;;17.06;56.95;99558.69;5051720;28;20060;-79
2023/05/15 08:24:43;;;;;;;32.83;23.85;;;;;;;17.07;57.06;99556.84;5053255;28;20049;-80
2023/05/15 08:27:10;;;;;;;31.08;22.98;;;;;;;17.09;56.99;99562.03;5051854;28;20057;-79
2023/05/15 08:29:37;;;;;;;32.38;23.75;;;;;;;17.14;57.19;99554.50;5053078;28;20056;-78
2023/05/15 08:32:06;;;;;;;32.33;23.88;;;;;;;17.18;57.27;99562.06;5051822;28;20056;-79
2023/05/15 08:34:33;;;;;;;35.58;24.80;;;;;;;17.23;57.36;99553.66;5052849;28;20049;-80
2023/05/15 08:36:59;;;;;;;35.45;25.92;;;;;;;17.28;56.96;99561.25;5051977;28;20061;-79
2023/05/15 08:39:26;;;;;;;34.95;25.10;;;;;;;17.29;56.72;99553.16;5052790;28;20091;-79
2023/05/15 08:42:04;;;;;;;33.63;24.48;;;;;;;17.26;57.08;99550.75;5051610;28;20056;-78
2023/05/15 08:44:31;;;;;;;32.92;24.60;;;;;;;17.28;56.59;99551.47;5051674;28;20092;-79
2023/05/15 08:46:58;;;;;;;36.30;25.40;;;;;;;17.29;56.57;99552.28;5051733;28;20052;-79
2023/05/15 08:49:31;;;;;;;33.58;24.52;;;;;;;17.26;56.99;99553.41;5052410;28;20118;-78
2023/05/15 08:51:58;;;;;;;34.67;26.42;;;;;;;17.30;56.72;99554.81;5052686;28;20064;-79
2023/05/15 08:54:25;;;;;;;34.88;25.58;;;;;;;17.34;56.83;99557.22;5051276;28;20806;-79
2023/05/15 08:56:53;;;;;;;37.08;26.77;;;;;;;17.39;56.92;99547.00;5051247;28;20053;-79
2023/05/15 08:59:20;;;;;;;34.38;26.10;;;;;;;17.46;57.29;99548.16;5052424;28;20061;-79
2023/05/15 09:01:46;;;;;;;33.17;25.13;;;;;;;17.57;57.63;99545.34;5052328;28;20048;-79
2023/05/15 09:04:13;;;;;;;32.88;25.00;;;;;;;17.67;57.41;99545.34;5052488;28;20053;-79
2023/05/15 09:06:40;;;;;;;33.25;25.08;;;;;;;17.80;57.53;99550.38;5051639;28;20063;-79
2023/05/15 09:09:08;;;;;;;33.92;25.33;;;;;;;17.92;57.28;99548.47;5052262;28;20087;-80
2023/05/15 09:11:36;;;;;;;31.38;24.85;;;;;;;18.06;57.04;99551.66;5052236;28;20067;-79
2023/05/15 09:14:03;;;;;;;29.42;23.17;;;;;;;18.20;56.50;99545.94;5052320;28;20467;-78
2023/05/15 09:16:30;;;;;;;31.65;24.83;;;;;;;18.34;56.54;99552.66;5051745;28;20803;-79
2023/05/15 09:18:58;;;;;;;28.90;22.23;;;;;;;18.48;56.32;99543.38;5051818;28;20049;-78
2023/05/15 09:21:28;;;;;;;32.95;24.02;;;;;;;18.61;56.30;99536.84;5051939;28;20509;-79
2023/05/15 09:24:14;;;;;;;29.73;24.20;;;;;;;18.74;55.74;99541.88;5052122;28;20064;-78
2023/05/15 09:26:41;;;;;;;30.05;23.50;;;;;;;18.89;55.16;99545.72;5050044;28;20096;-79
2023/05/15 09:29:08;;;;;;;29.67;24.83;;;;;;;18.98;55.33;99544.00;5052066;28;20149;-78
2023/05/15 09:31:35;;;;;;;29.50;23.60;;;;;;;19.07;55.02;99547.66;5051901;28;20092;-79
2023/05/15 09:34:03;;;;;;;29.20;23.45;;;;;;;19.14;54.68;99548.72;5051917;28;20067;-79
2023/05/15 09:36:31;;;;;;;30.05;25.50;;;;;;;19.21;54.68;99550.81;5051262;28;20144;-78
2023/05/15 09:38:59;;;;;;;31.52;24.60;;;;;;;19.25;54.37;99555.69;5051219;28;20056;-79
2023/05/15 09:41:27;;;;;;;32.47;25.40;;;;;;;19.30;54.27;99557.94;5051545;28;20057;-79
2023/05/15 09:43:55;;;;;;;33.03;25.90;;;;;;;19.31;54.31;99559.59;5051663;28;20045;-78
2023/05/15 09:46:23;;;;;;;30.80;23.63;;;;;;;19.35;53.72;99557.47;5051173;28;20060;-79
2023/05/15 09:48:54;;;;;;;33.85;27.38;;;;;;;19.35;54.15;99563.66;5049831;28;20708;-79
2023/05/15 09:51:21;;;;;;;35.47;26.63;;;;;;;19.38;54.10;99562.50;5051400;28;20084;-79
2023/05/15 09:53:52;;;;;;;34.65;27.83;;;;;;;19.37;53.77;99559.00;5050156;28;20045;-79
2023/05/15 09:56:18;;;;;;;34.15;26.40;;;;;;;19.42;53.88;99553.22;5051369;28;20053;-79
2023/05/15 09:58:56;;;;;;;34.80;26.48;;;;;;;19.46;53.97;99557.25;5050947;28;20060;-79
2023/05/15 10:01:24;;;;;;;32.25;26.27;;;;;;;19.57;54.49;99553.53;5051276;28;20065;-78
2023/05/15 10:04:01;;;;;;;32.22;25.23;;;;;;;19.64;53.99;99549.28;5051261;28;20152;-79
2023/05/15 10:06:35;;;;;;;32.63;25.00;;;;;;;19.76;54.27;99549.88;5050878;28;20053;-78
2023/05/15 10:09:03;;;;;;;31.50;24.40;;;;;;;19.90;54.63;99551.19;5049464;28;20084;-79
2023/05/15 10:11:33;;;;;;;29.77;25.52;;;;;;;20.03;54.80;99555.31;5049902;28;20586;-79
2023/05/15 10:14:00;;;;;;;31.95;25.83;;;;;;;20.19;54.11;99557.28;5051116;28;20480;-79
2023/05/15 10:16:30;;;;;;;30.33;25.55;;;;;;;20.31;53.99;99549.84;5050660;28;20048;-78
2023/05/15 10:19:02;;;;;;;30.23;24.23;;;;;;;20.44;53.68;99558.28;5049514;28;20053;-79
2023/05/15 10:21:33;;;;;;;31.98;25.35;;;;;;;20.58;53.68;99556.03;5049923;28;20057;-78
2023/05/15 10:24:00;;;;;;;31.40;24.67;;;;;;;20.72;53.00;99556.44;5051079;28;20064;-79
2023/05/15 10:26:40;;;;;;;27.92;23.77;;;;;;;20.78;53.07;99556.66;5050415;28;20055;-78
2023/05/15 10:29:17;;;;;;;29.67;24.10;;;;;;;20.90;52.73;99549.19;5050865;28;20056;-79
2023/05/15 10:31:44;;;;;;;27.63;24.23;;;;;;;21.02;53.06;99548.94;5050914;28;20155;-77
2023/05/15 10:34:12;;;;;;;30.90;24.40;;;;;;;21.13;52.48;99547.81;5050853;28;20077;-78
2023/05/15 10:36:38;;;;;;;28.85;24.85;;;;;;;21.22;52.56;99547.69;5050222;28;20057;-79
2023/05/15 10:39:06;;;;;;;33.30;26.67;;;;;;;21.33;52.25;99546.53;5050784;28;20052;-79
2023/05/15 10:41:36;;;;;;;30.83;25.70;;;;;;;21.44;52.43;99542.72;5050687;28;20137;-80
2023/05/15 10:44:02;;;;;;;29.23;25.40;;;;;;;21.61;52.88;99538.22;5049582;28;20068;-78
2023/05/15 10:46:32;;;;;;;34.08;25.58;;;;;;;21.81;52.28;99537.09;5050178;28;20493;-79
2023/05/15 10:49:00;;;;;;;28.05;24.17;;;;;;;22.02;52.64;99536.63;5050645;28;20056;-79
2023/05/15 10:51:28;;;;;;;29.70;24.45;;;;;;;22.29;52.82;99536.41;5050645;28;20136;-79
2023/05/15 10:53:56;;;;;;;27.25;23.55;;;;;;;22.63;52.51;99532.69;5050457;28;20063;-79
2023/05/15 10:56:29;;;;;;;30.63;24.27;;;;;;;23.03;51.14;99525.47;5050109;28;20075;-79
2023/05/15 10:58:56;;;;;;;27.42;23.33;;;;;;;23.51;52.02;99529.13;5050158;28;20092;-80
2023/05/15 11:01:31;;;;;;;26.02;23.15;;;;;;;23.97;51.04;99522.91;5050512;28;20114;-80
2023/05/15 11:04:11;;;;;;;25.45;22.65;;;;;;;24.45;49.65;99521.81;5050432;28;20053;-80
2023/05/15 11:06:43;;;;;;;23.38;20.73;;;;;;;24.93;49.03;99516.03;5049861;28;20095;-80
2023/05/15 11:09:24;;;;;;;24.52;19.73;;;;;;;25.34;48.06;99524.63;5050720;28;20052;-80
2023/05/15 11:11:55;;;;;;;23.80;19.98;;;;;;;25.80;48.54;99514.50;5050539;28;20148;-80
2023/05/15 11:14:23;;;;;;;19.90;17.90;;;;;;;26.18;46.67;99516.03;5050400;28;20144;-80
2023/05/15 11:16:53;;;;;;;21.95;18.60;;;;;;;26.55;44.68;99514.03;5049557;28;20302;-80
2023/05/15 11:19:49;;;;;;;20.45;18.27;;;;;;;26.92;45.39;99514.63;5050458;28;20071;-80
2023/05/15 11:22:29;;;;;;;20.05;17.88;;;;;;;27.38;44.82;99515.03;5048886;28;20056;-80
2023/05/15 11:25:08;;;;;;;18.10;16.23;;;;;;;27.72;42.94;99506.16;5054132;28;20076;-80
2023/05/15 11:27:40;;;;;;;17.55;15.63;;;;;;;28.05;42.41;99497.22;5053689;28;20084;-80